createdAt,value
2022-07-28T00:01:06.957Z,98.80
2022-07-28T00:03:33.968Z,99.10
2022-07-28T00:06:00.934Z,98.80
2022-07-28T00:08:27.851Z,98.80
2022-07-28T00:10:54.926Z,98.70
2022-07-28T00:13:22.388Z,98.90
2022-07-28T00:15:49.786Z,99.20
2022-07-28T00:18:16.910Z,98.90
2022-07-28T00:20:43.875Z,99.30
2022-07-28T00:23:10.834Z,99.30
2022-07-28T00:25:37.759Z,99.50
2022-07-28T00:28:04.755Z,99.70
2022-07-28T00:30:31.648Z,99.90
2022-07-28T00:32:58.750Z,99.90
2022-07-28T00:35:31.030Z,99.90
2022-07-28T00:38:00.213Z,99.90
2022-07-28T00:40:47.483Z,99.90
2022-07-28T00:43:15.250Z,99.90
2022-07-28T00:45:43.905Z,99.90
2022-07-28T00:48:10.828Z,99.90
2022-07-28T00:50:40.523Z,99.90
2022-07-28T00:53:08.716Z,99.90
2022-07-28T00:56:03.561Z,99.90
2022-07-28T00:58:28.013Z,99.90
2022-07-28T01:00:56.221Z,99.90
2022-07-28T01:03:24.753Z,99.90
2022-07-28T01:06:11.090Z,99.90
2022-07-28T01:09:11.557Z,99.90
2022-07-28T01:12:22.532Z,99.90
2022-07-28T01:14:55.366Z,99.90
2022-07-28T01:17:37.386Z,99.90
2022-07-28T01:20:17.109Z,99.90
2022-07-28T01:23:29.415Z,99.90
2022-07-28T01:26:17.210Z,99.90
2022-07-28T01:29:32.862Z,99.90
2022-07-28T01:32:19.453Z,99.90
2022-07-28T01:34:59.168Z,99.90
2022-07-28T01:37:29.512Z,99.90
2022-07-28T01:40:05.679Z,99.90
2022-07-28T01:42:43.028Z,99.90
2022-07-28T01:45:12.980Z,99.90
2022-07-28T01:47:45.324Z,99.90
2022-07-28T01:50:16.026Z,99.90
2022-07-28T01:52:46.511Z,99.90
2022-07-28T01:55:14.740Z,99.90
2022-07-28T01:57:43.058Z,99.90
2022-07-28T02:00:12.207Z,99.90
2022-07-28T02:02:40.734Z,99.90
2022-07-28T02:05:09.924Z,99.90
2022-07-28T02:07:39.313Z,99.90
2022-07-28T02:10:08.052Z,99.90
2022-07-28T02:12:36.475Z,99.90
2022-07-28T02:15:04.604Z,99.90
2022-07-28T02:17:33.539Z,99.90
2022-07-28T02:20:05.086Z,99.90
2022-07-28T02:22:34.801Z,99.90
2022-07-28T02:25:02.976Z,99.90
2022-07-28T02:27:59.180Z,99.90
2022-07-28T02:30:47.439Z,99.90
2022-07-28T02:33:24.442Z,99.90
2022-07-28T02:36:20.847Z,99.90
2022-07-28T02:38:51.037Z,99.90
2022-07-28T02:41:29.201Z,99.90
2022-07-28T02:44:01.092Z,99.90
2022-07-28T02:46:38.838Z,99.90
2022-07-28T02:49:11.886Z,99.90
2022-07-28T02:51:42.467Z,99.90
2022-07-28T02:54:11.451Z,99.90
2022-07-28T02:56:40.607Z,99.90
2022-07-28T02:59:09.305Z,99.90
2022-07-28T03:01:37.391Z,99.90
2022-07-28T03:04:05.102Z,99.90
2022-07-28T03:06:32.507Z,99.90
2022-07-28T03:08:59.479Z,99.90
2022-07-28T03:11:29.236Z,99.90
2022-07-28T03:13:56.207Z,99.90
2022-07-28T03:16:23.254Z,99.90
2022-07-28T03:18:50.270Z,99.90
2022-07-28T03:21:17.419Z,99.90
2022-07-28T03:23:48.384Z,99.90
2022-07-28T03:26:36.710Z,99.90
2022-07-28T03:29:04.052Z,99.90
2022-07-28T03:31:34.099Z,99.90
2022-07-28T03:34:01.062Z,99.90
2022-07-28T03:36:40.354Z,99.90
2022-07-28T03:39:11.838Z,99.90
2022-07-28T03:41:41.209Z,99.90
2022-07-28T03:44:10.825Z,99.90
2022-07-28T03:46:47.193Z,99.90
2022-07-28T03:49:14.256Z,99.90
2022-07-28T03:51:41.230Z,99.90
2022-07-28T03:54:08.132Z,99.90
2022-07-28T03:56:35.097Z,99.90
2022-07-28T03:59:02.015Z,99.90
2022-07-28T04:01:29.397Z,99.90
2022-07-28T04:03:56.488Z,99.90
2022-07-28T04:06:23.384Z,99.90
2022-07-28T04:08:50.339Z,99.90
2022-07-28T04:11:17.208Z,99.90
2022-07-28T04:13:44.221Z,99.90
2022-07-28T04:16:11.149Z,99.90
2022-07-28T04:18:38.123Z,99.90
2022-07-28T04:21:06.574Z,99.90
2022-07-28T04:23:33.661Z,99.90
2022-07-28T04:26:00.648Z,99.90
2022-07-28T04:28:27.607Z,99.90
2022-07-28T04:30:54.561Z,99.90
2022-07-28T04:33:21.621Z,99.90
2022-07-28T04:35:48.566Z,99.90
2022-07-28T04:38:17.750Z,99.90
2022-07-28T04:40:44.752Z,99.90
2022-07-28T04:43:11.702Z,99.90
2022-07-28T04:45:38.751Z,99.90
2022-07-28T04:48:13.618Z,99.90
2022-07-28T04:50:42.152Z,99.90
2022-07-28T04:53:09.151Z,99.90
2022-07-28T04:55:38.735Z,99.90
2022-07-28T04:58:07.024Z,99.90
2022-07-28T05:00:36.361Z,99.90
2022-07-28T05:03:04.269Z,99.90
2022-07-28T05:05:31.335Z,99.90
2022-07-28T05:07:58.266Z,99.90
2022-07-28T05:10:25.581Z,99.90
2022-07-28T05:12:54.457Z,99.90
2022-07-28T05:15:21.575Z,99.90
2022-07-28T05:17:49.983Z,99.90
2022-07-28T05:20:17.417Z,99.90
2022-07-28T05:22:47.268Z,99.90
2022-07-28T05:25:20.372Z,99.90
2022-07-28T05:27:48.188Z,99.90
2022-07-28T05:30:16.571Z,99.90
2022-07-28T05:32:45.353Z,99.90
2022-07-28T05:35:12.772Z,99.90
2022-07-28T05:37:39.943Z,99.90
2022-07-28T05:40:15.106Z,99.90
2022-07-28T05:42:47.422Z,99.90
2022-07-28T05:45:16.285Z,99.90
2022-07-28T05:47:52.193Z,99.90
2022-07-28T05:50:22.646Z,99.90
2022-07-28T05:52:51.177Z,99.90
2022-07-28T05:55:18.842Z,99.90
2022-07-28T05:57:46.727Z,99.90
2022-07-28T06:00:17.671Z,99.90
2022-07-28T06:02:46.107Z,99.90
2022-07-28T06:05:14.119Z,99.90
2022-07-28T06:07:43.127Z,99.90
2022-07-28T06:10:15.688Z,99.90
2022-07-28T06:12:48.956Z,99.90
2022-07-28T06:15:25.702Z,99.90
2022-07-28T06:17:55.392Z,99.90
2022-07-28T06:20:24.481Z,99.90
2022-07-28T06:22:55.461Z,99.90
2022-07-28T06:25:28.560Z,99.90
2022-07-28T06:27:58.701Z,99.90
2022-07-28T06:30:26.643Z,99.90
2022-07-28T06:32:53.836Z,99.90
2022-07-28T06:35:21.307Z,99.90
2022-07-28T06:37:50.816Z,99.90
2022-07-28T06:40:20.484Z,99.90
2022-07-28T06:42:47.660Z,99.90
2022-07-28T06:45:21.043Z,99.90
2022-07-28T06:47:52.984Z,99.90
2022-07-28T06:50:24.924Z,99.90
2022-07-28T06:52:59.038Z,99.90
2022-07-28T06:55:34.358Z,99.90
2022-07-28T06:58:06.279Z,99.90
2022-07-28T07:00:33.559Z,99.90
2022-07-28T07:03:01.207Z,99.90
2022-07-28T07:05:32.197Z,99.90
2022-07-28T07:08:00.108Z,99.70
2022-07-28T07:10:27.373Z,99.70
2022-07-28T07:12:54.487Z,99.70
2022-07-28T07:15:21.532Z,99.50
2022-07-28T07:17:48.471Z,99.30
2022-07-28T07:20:17.080Z,99.50
2022-07-28T07:22:46.753Z,98.40
2022-07-28T07:25:17.124Z,97.90
2022-07-28T07:27:45.212Z,97.40
2022-07-28T07:30:14.193Z,97.30
2022-07-28T07:32:41.470Z,97.50
2022-07-28T07:35:08.905Z,98.00
2022-07-28T07:37:35.867Z,97.10
2022-07-28T07:40:05.841Z,97.00
2022-07-28T07:42:33.085Z,97.00
2022-07-28T07:45:00.239Z,95.60
2022-07-28T07:47:27.433Z,95.20
2022-07-28T07:49:54.447Z,95.70
2022-07-28T07:52:21.437Z,95.80
2022-07-28T07:54:48.429Z,94.60
2022-07-28T07:57:15.595Z,94.90
2022-07-28T07:59:42.653Z,94.10
2022-07-28T08:02:10.048Z,93.70
2022-07-28T08:04:38.717Z,93.80
2022-07-28T08:07:06.721Z,93.90
2022-07-28T08:09:34.799Z,94.50
2022-07-28T08:12:01.914Z,93.90
2022-07-28T08:14:28.913Z,93.70
2022-07-28T08:16:56.729Z,92.60
2022-07-28T08:19:24.270Z,93.30
2022-07-28T08:21:52.116Z,92.80
2022-07-28T08:24:33.086Z,92.00
2022-07-28T08:27:05.470Z,90.20
2022-07-28T08:29:33.053Z,90.20
2022-07-28T08:32:04.098Z,90.20
2022-07-28T08:34:33.658Z,90.30
2022-07-28T08:37:06.555Z,90.30
2022-07-28T08:39:35.538Z,91.00
2022-07-28T08:42:20.882Z,90.80
2022-07-28T08:44:54.915Z,91.20
2022-07-28T08:47:22.483Z,90.50
2022-07-28T08:49:51.006Z,90.40
2022-07-28T08:52:21.679Z,91.20
2022-07-28T08:54:51.061Z,90.40
2022-07-28T08:57:34.034Z,90.10
2022-07-28T09:00:01.515Z,89.70
2022-07-28T09:02:30.941Z,90.50
2022-07-28T09:05:01.117Z,89.60
2022-07-28T09:07:28.487Z,89.80
2022-07-28T09:09:57.390Z,87.40
2022-07-28T09:12:29.612Z,88.70
2022-07-28T09:14:56.512Z,88.90
2022-07-28T09:17:23.520Z,84.90
2022-07-28T09:19:50.415Z,83.30
2022-07-28T09:22:17.381Z,84.10
2022-07-28T09:24:47.002Z,84.20
2022-07-28T09:27:15.297Z,81.20
2022-07-28T09:29:58.207Z,82.10
2022-07-28T09:32:27.269Z,83.40
2022-07-28T09:34:54.232Z,83.10
2022-07-28T09:37:27.066Z,82.20
2022-07-28T09:39:59.779Z,82.30
2022-07-28T09:42:45.594Z,82.50
2022-07-28T09:45:22.871Z,82.20
2022-07-28T09:48:08.984Z,80.30
2022-07-28T09:50:36.130Z,79.20
2022-07-28T09:53:28.300Z,78.20
2022-07-28T09:56:03.302Z,76.10
2022-07-28T09:58:30.959Z,74.70
2022-07-28T10:01:04.879Z,75.20
2022-07-28T10:03:36.540Z,71.90
2022-07-28T10:06:08.120Z,74.20
2022-07-28T10:08:50.204Z,71.10
2022-07-28T10:11:24.528Z,72.30
2022-07-28T10:13:58.043Z,69.10
2022-07-28T10:16:31.139Z,67.70
2022-07-28T10:19:01.148Z,67.20
2022-07-28T10:21:32.855Z,65.20
2022-07-28T10:24:06.102Z,67.50
2022-07-28T10:26:44.824Z,67.30
2022-07-28T10:29:22.465Z,68.70
2022-07-28T10:31:57.704Z,66.10
2022-07-28T10:34:38.073Z,68.30
2022-07-28T10:37:10.360Z,67.60
2022-07-28T10:39:42.668Z,68.00
2022-07-28T10:42:12.656Z,69.50
2022-07-28T10:44:41.672Z,68.00
2022-07-28T10:47:18.413Z,65.40
2022-07-28T10:49:50.344Z,65.60
2022-07-28T10:55:43.764Z,63.10
2022-07-28T10:58:25.241Z,65.20
2022-07-28T11:00:57.233Z,67.70
2022-07-28T11:03:46.946Z,69.00
2022-07-28T11:06:31.107Z,65.00
2022-07-28T11:09:19.423Z,66.80
2022-07-28T11:11:51.819Z,66.50
2022-07-28T11:14:25.892Z,63.60
2022-07-28T11:17:05.022Z,66.30
2022-07-28T11:22:39.996Z,69.00
2022-07-28T11:25:19.062Z,68.10
2022-07-28T11:27:51.986Z,67.80
2022-07-28T11:30:19.330Z,67.80
2022-07-28T11:32:55.210Z,66.70
2022-07-28T11:35:26.956Z,63.10
2022-07-28T11:38:03.431Z,62.00
2022-07-28T11:40:37.985Z,61.50
2022-07-28T11:43:36.414Z,59.60
2022-07-28T11:46:10.124Z,59.80
2022-07-28T11:48:41.372Z,58.30
2022-07-28T11:51:10.371Z,56.80
2022-07-28T11:53:43.304Z,52.60
2022-07-28T11:56:21.934Z,50.70
2022-07-28T11:59:01.677Z,52.70
2022-07-28T12:01:31.656Z,53.30
2022-07-28T12:04:01.101Z,53.40
2022-07-28T12:06:36.515Z,54.80
2022-07-28T12:09:07.177Z,54.10
2022-07-28T12:11:37.255Z,55.50
2022-07-28T12:14:09.502Z,54.90
2022-07-28T12:16:41.449Z,54.10
2022-07-28T12:19:10.097Z,56.00
2022-07-28T12:21:46.370Z,54.30
2022-07-28T12:24:45.534Z,55.80
2022-07-28T12:27:16.939Z,54.30
2022-07-28T12:29:47.834Z,55.00
2022-07-28T12:32:17.515Z,55.00
2022-07-28T12:34:45.888Z,55.90
2022-07-28T12:37:14.468Z,57.70
2022-07-28T12:39:44.223Z,56.40
2022-07-28T12:42:13.038Z,57.10
2022-07-28T12:44:51.238Z,54.40
2022-07-28T12:47:29.361Z,55.00
2022-07-28T12:50:17.592Z,57.50
2022-07-28T12:53:03.963Z,57.70
2022-07-28T12:55:32.234Z,57.40
2022-07-28T12:57:59.919Z,57.20
2022-07-28T13:00:50.662Z,57.40
2022-07-28T13:03:29.224Z,58.80
2022-07-28T13:06:03.719Z,58.40
2022-07-28T13:08:46.504Z,57.70
2022-07-28T13:14:05.695Z,59.20
2022-07-28T13:16:34.294Z,58.60
2022-07-28T13:19:04.390Z,58.00
2022-07-28T13:21:56.953Z,57.60
2022-07-28T13:24:24.541Z,57.80
2022-07-28T13:26:51.931Z,58.80
2022-07-28T13:29:19.856Z,60.10
2022-07-28T13:31:46.945Z,57.60
2022-07-28T13:34:14.527Z,58.10
2022-07-28T13:36:42.007Z,57.90
2022-07-28T13:39:10.970Z,58.30
2022-07-28T13:41:57.744Z,57.20
2022-07-28T13:44:27.121Z,58.00
2022-07-28T13:46:55.260Z,58.70
2022-07-28T13:49:22.943Z,57.90
2022-07-28T13:51:51.474Z,59.10
2022-07-28T13:54:20.369Z,57.40
2022-07-28T13:57:06.867Z,57.10
2022-07-28T13:59:36.188Z,57.20
2022-07-28T14:02:04.813Z,58.50
2022-07-28T14:04:31.930Z,57.40
2022-07-28T14:06:59.732Z,56.10
2022-07-28T14:09:26.730Z,56.50
2022-07-28T14:11:54.146Z,56.60
2022-07-28T14:14:24.578Z,57.20
2022-07-28T14:16:54.329Z,57.10
2022-07-28T14:19:39.043Z,57.40
2022-07-28T14:22:13.340Z,58.30
2022-07-28T14:24:42.080Z,56.20
2022-07-28T14:27:10.356Z,58.40
2022-07-28T14:29:38.470Z,57.00
2022-07-28T14:32:06.352Z,57.60
2022-07-28T14:34:34.364Z,56.10
2022-07-28T14:37:03.553Z,55.60
2022-07-28T14:39:35.916Z,56.90
2022-07-28T14:42:04.170Z,54.30
2022-07-28T14:44:31.218Z,53.20
2022-07-28T14:46:58.321Z,54.80
2022-07-28T14:49:25.562Z,53.70
2022-07-28T14:51:52.687Z,53.80
2022-07-28T14:54:22.137Z,55.20
2022-07-28T14:56:49.095Z,54.60
2022-07-28T14:59:16.023Z,56.60
2022-07-28T15:01:43.355Z,56.20
2022-07-28T15:04:12.420Z,56.20
2022-07-28T15:06:40.819Z,56.90
2022-07-28T15:09:09.392Z,58.50
2022-07-28T15:11:37.055Z,58.20
2022-07-28T15:14:04.477Z,57.40
2022-07-28T15:16:31.687Z,58.00
2022-07-28T15:18:59.929Z,58.20
2022-07-28T15:21:26.971Z,58.20
2022-07-28T15:23:53.943Z,58.80
2022-07-28T15:26:21.108Z,59.10
2022-07-28T15:28:48.657Z,59.70
2022-07-28T15:31:17.254Z,60.60
2022-07-28T15:33:57.468Z,61.10
2022-07-28T15:36:25.653Z,62.40
2022-07-28T15:38:55.929Z,61.80
2022-07-28T15:41:22.935Z,61.40
2022-07-28T15:43:50.102Z,60.70
2022-07-28T15:46:17.115Z,61.10
2022-07-28T15:48:44.682Z,60.20
2022-07-28T15:51:11.960Z,56.90
2022-07-28T15:53:41.112Z,56.70
2022-07-28T15:56:08.856Z,55.00
2022-07-28T15:58:36.685Z,54.20
2022-07-28T16:01:03.996Z,51.90
2022-07-28T16:03:31.068Z,52.40
2022-07-28T16:05:58.939Z,52.10
2022-07-28T16:08:28.009Z,52.40
2022-07-28T16:10:55.155Z,49.40
2022-07-28T16:13:32.113Z,48.60
2022-07-28T16:16:10.000Z,45.60
2022-07-28T16:18:39.373Z,44.50
2022-07-28T16:21:10.830Z,45.50
2022-07-28T16:23:38.098Z,43.90
2022-07-28T16:26:08.026Z,42.40
2022-07-28T16:28:36.253Z,42.70
2022-07-28T16:31:03.350Z,43.40
2022-07-28T16:33:33.463Z,44.80
2022-07-28T16:36:02.145Z,45.60
2022-07-28T16:38:29.102Z,46.30
2022-07-28T16:40:57.180Z,45.50
2022-07-28T16:43:24.495Z,46.10
2022-07-28T16:45:51.823Z,45.50
2022-07-28T16:48:18.842Z,47.10
2022-07-28T16:50:46.257Z,47.40
2022-07-28T16:53:14.026Z,46.90
2022-07-28T16:55:45.372Z,47.90
2022-07-28T16:58:12.328Z,48.40
2022-07-28T17:00:39.313Z,47.80
2022-07-28T17:03:06.204Z,49.30
2022-07-28T17:05:33.133Z,50.60
2022-07-28T17:08:00.047Z,51.60
2022-07-28T17:10:27.437Z,51.20
2022-07-28T17:12:55.173Z,54.50
2022-07-28T17:15:23.430Z,57.40
2022-07-28T17:17:51.971Z,56.60
2022-07-28T17:20:20.039Z,58.50
2022-07-28T17:22:47.127Z,57.30
2022-07-28T17:28:01.823Z,58.20
2022-07-28T17:30:30.297Z,60.00
2022-07-28T17:33:03.511Z,60.10
2022-07-28T17:35:35.269Z,60.10
2022-07-28T17:38:04.470Z,60.80
2022-07-28T17:40:31.331Z,61.10
2022-07-28T17:42:58.410Z,60.80
2022-07-28T17:45:25.441Z,62.00
2022-07-28T17:47:52.515Z,63.50
2022-07-28T17:50:19.876Z,63.80
2022-07-28T17:52:47.270Z,63.20
2022-07-28T17:55:57.690Z,64.60
2022-07-28T17:58:29.616Z,64.30
2022-07-28T18:01:11.289Z,64.60
2022-07-28T18:03:56.943Z,65.00
2022-07-28T18:06:29.721Z,65.00
2022-07-28T18:08:57.512Z,65.10
2022-07-28T18:11:29.896Z,65.90
2022-07-28T18:14:03.753Z,65.80
2022-07-28T18:16:32.218Z,66.90
2022-07-28T18:18:59.386Z,66.50
2022-07-28T18:21:26.738Z,67.10
2022-07-28T18:23:54.797Z,67.10
2022-07-28T18:26:22.263Z,67.30
2022-07-28T18:28:49.979Z,68.50
2022-07-28T18:31:17.215Z,69.10
2022-07-28T18:33:44.399Z,68.90
2022-07-28T18:36:11.474Z,68.80
2022-07-28T18:38:38.587Z,68.60
2022-07-28T18:41:05.543Z,69.70
2022-07-28T18:43:35.077Z,70.00
2022-07-28T18:46:05.307Z,69.80
2022-07-28T18:48:32.453Z,70.10
2022-07-28T18:50:59.396Z,70.10
2022-07-28T18:53:28.883Z,70.30
2022-07-28T18:55:55.847Z,70.60
2022-07-28T18:58:23.304Z,70.80
2022-07-28T19:00:50.314Z,71.20
2022-07-28T19:03:17.290Z,68.70
2022-07-28T19:05:46.309Z,71.10
2022-07-28T19:08:13.537Z,71.30
2022-07-28T19:10:41.766Z,71.30
2022-07-28T19:13:09.192Z,71.50
2022-07-28T19:15:40.724Z,71.30
2022-07-28T19:18:12.197Z,72.10
2022-07-28T19:20:40.544Z,71.60
2022-07-28T19:23:07.530Z,72.10
2022-07-28T19:25:36.190Z,72.50
2022-07-28T19:28:04.815Z,73.00
2022-07-28T19:30:32.278Z,72.50
2022-07-28T19:33:00.016Z,73.40
2022-07-28T19:35:27.064Z,73.10
2022-07-28T19:37:56.422Z,73.40
2022-07-28T19:40:25.251Z,73.10
2022-07-28T19:42:53.433Z,73.40
2022-07-28T19:45:20.505Z,74.70
2022-07-28T19:47:49.909Z,74.30
2022-07-28T19:50:18.349Z,74.40
2022-07-28T19:52:45.532Z,74.70
2022-07-28T19:55:17.538Z,75.10
2022-07-28T19:57:47.631Z,74.70
2022-07-28T20:00:17.521Z,75.00
2022-07-28T20:02:45.812Z,74.70
2022-07-28T20:05:13.222Z,75.20
2022-07-28T20:07:40.363Z,76.30
2022-07-28T20:10:07.865Z,74.80
2022-07-28T20:12:36.941Z,75.70
2022-07-28T20:15:08.461Z,76.30
2022-07-28T20:17:39.045Z,76.90
2022-07-28T20:20:10.162Z,76.80
2022-07-28T20:22:42.030Z,76.30
2022-07-28T20:25:11.201Z,76.20
2022-07-28T20:27:40.785Z,77.00
2022-07-28T20:30:13.558Z,77.60
2022-07-28T20:32:42.261Z,77.30
2022-07-28T20:35:10.684Z,78.00
2022-07-28T20:37:38.700Z,79.60
2022-07-28T20:40:07.004Z,78.90
2022-07-28T20:42:34.801Z,79.20
2022-07-28T20:45:01.779Z,79.40
2022-07-28T20:47:32.811Z,79.70
2022-07-28T20:50:00.905Z,79.80
2022-07-28T20:52:28.137Z,80.40
2022-07-28T20:54:55.413Z,80.60
2022-07-28T20:57:23.256Z,80.70
2022-07-28T20:59:52.034Z,80.70
2022-07-28T21:02:21.046Z,81.10
2022-07-28T21:04:50.351Z,81.30
2022-07-28T21:07:59.603Z,81.90
2022-07-28T21:10:08.748Z,82.60
2022-07-28T21:12:39.906Z,82.90
2022-07-28T21:15:08.839Z,83.00
2022-07-28T21:17:36.421Z,83.20
2022-07-28T21:20:06.371Z,84.50
2022-07-28T21:22:33.721Z,84.10
2022-07-28T21:25:01.364Z,84.60
2022-07-28T21:27:48.407Z,85.40
2022-07-28T21:30:15.413Z,86.80
2022-07-28T21:32:42.367Z,86.60
2022-07-28T21:35:14.016Z,86.80
2022-07-28T21:37:41.309Z,86.90
2022-07-28T21:40:09.198Z,86.90
2022-07-28T21:42:36.292Z,87.40
2022-07-28T21:45:03.404Z,88.70
2022-07-28T21:47:34.636Z,87.80
2022-07-28T21:50:03.982Z,87.70
2022-07-28T21:52:30.880Z,88.30
2022-07-28T21:54:57.889Z,89.10
2022-07-28T21:57:25.425Z,90.00
2022-07-28T21:59:53.770Z,90.20
2022-07-28T22:02:20.880Z,90.20
2022-07-28T22:04:51.236Z,90.40
2022-07-28T22:07:18.391Z,90.50
2022-07-28T22:09:45.439Z,90.60
2022-07-28T22:12:12.588Z,90.60
2022-07-28T22:14:39.550Z,90.80
2022-07-28T22:17:06.652Z,91.10
2022-07-28T22:19:33.677Z,91.20
2022-07-28T22:22:00.652Z,91.20
2022-07-28T22:24:27.852Z,91.20
2022-07-28T22:26:55.074Z,91.30
2022-07-28T22:29:22.255Z,91.50
2022-07-28T22:31:49.262Z,91.90
2022-07-28T22:34:16.729Z,92.00
2022-07-28T22:36:44.190Z,92.40
2022-07-28T22:39:11.308Z,92.60
2022-07-28T22:41:38.290Z,92.80
2022-07-28T22:44:06.158Z,93.10
2022-07-28T22:46:36.988Z,93.10
2022-07-28T22:49:04.202Z,93.00
2022-07-28T22:51:31.230Z,93.40
2022-07-28T22:53:58.940Z,93.30
2022-07-28T22:56:26.018Z,93.90
2022-07-28T22:58:53.080Z,93.90
2022-07-28T23:01:20.163Z,93.80
2022-07-28T23:03:47.611Z,93.90
2022-07-28T23:06:14.705Z,94.10
2022-07-28T23:08:41.680Z,95.10
2022-07-28T23:11:08.750Z,94.70
2022-07-28T23:13:35.706Z,94.80
2022-07-28T23:16:02.812Z,94.90
2022-07-28T23:18:30.364Z,95.40
2022-07-28T23:20:57.315Z,95.40
2022-07-28T23:23:24.457Z,95.40
2022-07-28T23:25:51.427Z,95.40
2022-07-28T23:28:18.474Z,95.60
2022-07-28T23:30:47.322Z,96.10
2022-07-28T23:33:53.936Z,96.30
2022-07-28T23:36:01.311Z,96.30
2022-07-28T23:38:28.230Z,96.40
2022-07-28T23:40:55.213Z,96.50
2022-07-28T23:43:22.192Z,96.80
2022-07-28T23:45:49.137Z,97.30
2022-07-28T23:48:16.087Z,97.10
2022-07-28T23:50:43.024Z,97.40
2022-07-28T23:53:10.016Z,97.60
2022-07-28T23:55:36.932Z,97.80
2022-07-28T23:58:04.381Z,97.80
